createdAt,value
2023-02-13T00:00:39.822Z,4.22
2023-02-13T00:03:25.211Z,4.13
2023-02-13T00:06:11.708Z,4.50
2023-02-13T00:08:56.873Z,3.95
2023-02-13T00:11:42.453Z,4.03
2023-02-13T00:14:27.726Z,4.72
2023-02-13T00:17:13.124Z,4.90
2023-02-13T00:19:58.474Z,4.53
2023-02-13T00:22:43.805Z,4.25
2023-02-13T00:25:29.367Z,4.75
2023-02-13T00:28:14.670Z,4.63
2023-02-13T00:31:08.911Z,4.05
2023-02-13T00:33:54.269Z,3.80
2023-02-13T00:36:39.583Z,3.80
2023-02-13T00:39:24.966Z,3.42
2023-02-13T00:42:10.310Z,3.50
2023-02-13T00:44:55.568Z,3.38
2023-02-13T00:47:41.070Z,3.47
2023-02-13T00:50:26.535Z,3.13
2023-02-13T00:53:11.909Z,3.80
2023-02-13T00:55:57.328Z,3.90
2023-02-13T00:58:42.636Z,4.07
2023-02-13T01:01:28.035Z,4.20
2023-02-13T01:04:13.229Z,3.75
2023-02-13T01:06:58.631Z,4.00
2023-02-13T01:09:44.488Z,3.83
2023-02-13T01:12:29.462Z,3.15
2023-02-13T01:15:15.082Z,3.55
2023-02-13T01:18:00.956Z,3.58
2023-02-13T01:20:57.278Z,3.35
2023-02-13T01:23:43.060Z,3.35
2023-02-13T01:26:28.425Z,2.60
2023-02-13T01:29:14.555Z,3.47
2023-02-13T01:31:59.741Z,3.70
2023-02-13T01:34:45.243Z,3.03
2023-02-13T01:37:30.684Z,3.35
2023-02-13T01:40:17.239Z,2.95
2023-02-13T01:43:02.577Z,3.85
2023-02-13T01:45:53.007Z,3.17
2023-02-13T01:48:38.271Z,3.58
2023-02-13T01:51:30.219Z,3.63
2023-02-13T01:54:23.645Z,4.10
2023-02-13T01:57:18.462Z,3.97
2023-02-13T02:00:12.048Z,3.97
2023-02-13T02:03:21.538Z,4.20
2023-02-13T02:06:11.968Z,4.85
2023-02-13T02:09:01.739Z,3.72
2023-02-13T02:12:03.156Z,4.13
2023-02-13T02:14:50.695Z,4.28
2023-02-13T02:17:35.708Z,4.35
2023-02-13T02:20:36.370Z,4.28
2023-02-13T02:24:09.766Z,3.70
2023-02-13T02:30:03.861Z,4.03
2023-02-13T02:33:02.197Z,4.00
2023-02-13T02:36:25.489Z,3.38
2023-02-13T02:39:43.685Z,4.03
2023-02-13T02:42:59.948Z,3.95
2023-02-13T02:46:03.882Z,4.03
2023-02-13T02:49:29.950Z,3.20
2023-02-13T02:52:20.095Z,3.25
2023-02-13T02:55:35.805Z,3.63
2023-02-13T02:58:58.281Z,3.58
2023-02-13T03:02:03.853Z,3.88
2023-02-13T03:05:11.916Z,3.80
2023-02-13T03:07:57.271Z,3.45
2023-02-13T03:11:01.157Z,3.70
2023-02-13T03:13:49.262Z,3.63
2023-02-13T03:16:53.095Z,3.35
2023-02-13T03:20:44.517Z,3.50
2023-02-13T03:23:53.514Z,3.85
2023-02-13T03:26:50.572Z,3.80
2023-02-13T03:30:07.691Z,4.22
2023-02-13T03:33:01.482Z,3.55
2023-02-13T03:36:12.688Z,3.55
2023-02-13T03:39:21.250Z,3.60
2023-02-13T03:42:21.853Z,3.75
2023-02-13T03:45:37.408Z,3.88
2023-02-13T03:48:53.940Z,3.05
2023-02-13T03:51:46.562Z,3.50
2023-02-13T03:55:01.538Z,3.30
2023-02-13T03:58:08.283Z,3.10
2023-02-13T04:00:57.652Z,3.33
2023-02-13T04:03:58.025Z,3.22
2023-02-13T04:06:52.116Z,3.15
2023-02-13T04:09:42.443Z,3.28
2023-02-13T04:12:49.111Z,3.20
2023-02-13T04:15:40.235Z,3.20
2023-02-13T04:18:32.806Z,3.47
2023-02-13T04:21:18.237Z,3.70
2023-02-13T04:24:03.956Z,3.10
2023-02-13T04:26:49.197Z,3.17
2023-02-13T04:29:34.557Z,2.53
2023-02-13T04:32:19.733Z,2.78
2023-02-13T04:35:05.300Z,2.38
2023-02-13T04:37:50.769Z,2.85
2023-02-13T04:40:36.238Z,2.72
2023-02-13T04:43:21.933Z,2.45
2023-02-13T04:46:07.301Z,2.30
2023-02-13T04:48:52.633Z,2.53
2023-02-13T04:51:37.935Z,3.03
2023-02-13T04:54:23.206Z,2.88
2023-02-13T04:57:08.686Z,3.65
2023-02-13T04:59:54.035Z,3.05
2023-02-13T05:02:39.684Z,2.83
2023-02-13T05:05:25.203Z,2.60
2023-02-13T05:08:10.611Z,2.60
2023-02-13T05:10:56.401Z,2.90
2023-02-13T05:13:41.869Z,2.85
2023-02-13T05:16:27.110Z,2.50
2023-02-13T05:19:13.190Z,2.38
2023-02-13T05:22:17.018Z,2.80
2023-02-13T05:25:02.839Z,2.90
2023-02-13T05:27:48.264Z,2.97
2023-02-13T05:30:33.654Z,2.80
2023-02-13T05:33:19.153Z,2.67
2023-02-13T05:36:04.886Z,2.47
2023-02-13T05:38:50.186Z,2.38
2023-02-13T05:41:35.710Z,2.83
2023-02-13T05:44:21.022Z,2.55
2023-02-13T05:47:06.530Z,2.60
2023-02-13T05:49:51.864Z,2.70
2023-02-13T05:52:37.243Z,3.20
2023-02-13T05:55:22.627Z,2.65
2023-02-13T05:58:09.416Z,3.33
2023-02-13T06:00:58.562Z,2.30
2023-02-13T06:03:44.060Z,2.47
2023-02-13T06:06:29.362Z,2.13
2023-02-13T06:09:14.806Z,2.50
2023-02-13T06:12:00.038Z,2.72
2023-02-13T06:14:45.274Z,2.10
2023-02-13T06:17:30.638Z,2.47
2023-02-13T06:20:15.838Z,2.40
2023-02-13T06:23:01.299Z,2.95
2023-02-13T06:25:46.576Z,2.35
2023-02-13T06:28:32.427Z,2.88
2023-02-13T06:31:17.938Z,2.75
2023-02-13T06:34:03.450Z,2.72
2023-02-13T06:36:48.588Z,2.90
2023-02-13T06:39:34.101Z,2.17
2023-02-13T06:42:19.596Z,3.00
2023-02-13T06:45:05.234Z,3.10
2023-02-13T06:47:51.689Z,2.58
2023-02-13T06:50:37.296Z,2.72
2023-02-13T06:53:24.779Z,2.83
2023-02-13T06:56:11.163Z,2.70
2023-02-13T06:58:56.341Z,2.35
2023-02-13T07:01:41.652Z,3.08
2023-02-13T07:04:27.929Z,3.00
2023-02-13T07:07:13.176Z,2.78
2023-02-13T07:09:58.467Z,3.58
2023-02-13T07:12:45.790Z,2.70
2023-02-13T07:15:35.487Z,2.80
2023-02-13T07:18:20.572Z,2.70
2023-02-13T07:21:06.208Z,3.03
2023-02-13T07:23:52.516Z,2.97
2023-02-13T07:26:37.833Z,3.05
2023-02-13T07:29:23.359Z,2.75
2023-02-13T07:32:09.136Z,2.58
2023-02-13T07:35:01.547Z,2.72
2023-02-13T07:37:47.472Z,2.78
2023-02-13T07:40:32.975Z,2.47
2023-02-13T07:43:18.288Z,3.35
2023-02-13T07:46:04.084Z,3.40
2023-02-13T07:48:51.428Z,3.38
2023-02-13T07:51:36.500Z,2.90
2023-02-13T07:54:21.931Z,3.53
2023-02-13T07:57:07.218Z,3.03
2023-02-13T07:59:52.545Z,2.72
2023-02-13T08:02:37.706Z,3.72
2023-02-13T08:05:23.053Z,3.53
2023-02-13T08:08:08.612Z,4.68
2023-02-13T08:11:13.056Z,3.38
2023-02-13T08:13:58.461Z,3.95
2023-02-13T08:16:43.696Z,3.00
2023-02-13T08:19:29.218Z,3.33
2023-02-13T08:22:14.572Z,3.55
2023-02-13T08:25:00.154Z,3.47
2023-02-13T08:27:45.818Z,3.85
2023-02-13T08:30:31.272Z,4.10
2023-02-13T08:33:16.292Z,3.22
2023-02-13T08:36:06.742Z,3.28
2023-02-13T08:38:52.137Z,3.45
2023-02-13T08:41:37.719Z,5.45
2023-02-13T08:44:23.112Z,3.72
2023-02-13T08:47:09.222Z,3.42
2023-02-13T08:49:54.338Z,3.47
2023-02-13T08:52:39.743Z,3.53
2023-02-13T08:55:24.969Z,2.97
2023-02-13T08:58:10.450Z,3.28
2023-02-13T09:00:55.935Z,3.53
2023-02-13T09:03:41.106Z,3.28
2023-02-13T09:06:27.540Z,4.13
2023-02-13T09:09:12.866Z,4.13
2023-02-13T09:11:58.240Z,3.72
2023-02-13T09:14:43.601Z,3.88
2023-02-13T09:17:28.905Z,3.85
2023-02-13T09:20:14.738Z,4.00
2023-02-13T09:23:00.134Z,3.42
2023-02-13T09:25:45.527Z,3.60
2023-02-13T09:28:32.683Z,4.07
2023-02-13T09:31:20.813Z,3.60
2023-02-13T09:34:06.447Z,3.85
2023-02-13T09:36:53.298Z,3.53
2023-02-13T09:39:38.720Z,2.90
2023-02-13T09:42:31.549Z,3.83
2023-02-13T09:45:19.162Z,4.38
2023-02-13T09:48:06.077Z,4.10
2023-02-13T09:50:51.890Z,3.55
2023-02-13T09:53:38.285Z,3.22
2023-02-13T09:56:39.361Z,3.80
2023-02-13T09:59:45.747Z,3.53
2023-02-13T10:02:58.300Z,3.33
2023-02-13T10:05:57.614Z,3.45
2023-02-13T10:09:07.723Z,3.45
2023-02-13T10:12:27.795Z,4.07
2023-02-13T10:15:44.253Z,3.92
2023-02-13T10:18:41.063Z,4.70
2023-02-13T10:21:32.133Z,3.78
2023-02-13T10:24:38.895Z,2.65
2023-02-13T10:27:28.225Z,2.92
2023-02-13T10:30:27.977Z,3.38
2023-02-13T10:33:30.010Z,3.20
2023-02-13T10:36:29.566Z,3.60
2023-02-13T10:39:25.555Z,3.20
2023-02-13T10:42:22.652Z,3.25
2023-02-13T10:45:41.819Z,3.38
2023-02-13T10:48:55.704Z,3.42
2023-02-13T10:52:02.810Z,3.33
2023-02-13T10:54:55.049Z,4.63
2023-02-13T10:58:18.164Z,4.50
2023-02-13T11:01:13.666Z,3.58
2023-02-13T11:04:05.515Z,4.43
2023-02-13T11:07:04.748Z,5.07
2023-02-13T11:09:53.078Z,4.60
2023-02-13T11:12:38.168Z,4.43
2023-02-13T11:15:32.658Z,4.38
2023-02-13T11:18:23.180Z,4.30
2023-02-13T11:21:20.821Z,4.07
2023-02-13T11:24:16.806Z,4.85
2023-02-13T11:27:09.373Z,4.18
2023-02-13T11:30:02.002Z,4.40
2023-02-13T11:35:41.329Z,5.13
2023-02-13T11:38:26.612Z,4.95
2023-02-13T11:41:15.094Z,4.45
2023-02-13T11:44:02.001Z,4.43
2023-02-13T11:46:52.696Z,4.28
2023-02-13T11:49:44.098Z,5.15
2023-02-13T11:52:35.172Z,4.72
2023-02-13T11:55:29.028Z,5.05
2023-02-13T11:58:14.029Z,5.00
2023-02-13T12:01:21.170Z,4.65
2023-02-13T12:04:18.085Z,5.03
2023-02-13T12:07:12.230Z,5.43
2023-02-13T12:10:06.026Z,5.10
2023-02-13T12:13:13.302Z,6.28
2023-02-13T12:16:34.261Z,4.82
2023-02-13T12:19:29.747Z,4.63
2023-02-13T12:22:30.091Z,6.07
2023-02-13T12:25:25.190Z,5.10
2023-02-13T12:31:33.039Z,5.13
2023-02-13T12:34:48.853Z,6.18
2023-02-13T12:37:46.043Z,6.15
2023-02-13T12:40:42.387Z,5.93
2023-02-13T12:43:50.016Z,5.88
2023-02-13T12:46:45.745Z,6.18
2023-02-13T12:49:59.210Z,4.70
2023-02-13T12:52:56.523Z,5.15
2023-02-13T12:56:17.334Z,5.50
2023-02-13T12:59:22.324Z,5.63
2023-02-13T13:02:42.830Z,5.45
2023-02-13T13:05:58.798Z,5.18
2023-02-13T13:09:10.405Z,5.20
2023-02-13T13:12:14.018Z,5.38
2023-02-13T13:15:26.963Z,5.18
2023-02-13T13:18:31.117Z,5.68
2023-02-13T13:21:22.432Z,4.82
2023-02-13T13:24:27.790Z,5.30
2023-02-13T13:27:25.229Z,5.60
2023-02-13T13:30:37.734Z,5.10
2023-02-13T13:33:25.393Z,4.82
2023-02-13T13:36:25.745Z,5.93
2023-02-13T13:39:21.592Z,5.10
2023-02-13T13:42:33.100Z,5.20
2023-02-13T13:45:27.872Z,5.03
2023-02-13T13:48:50.370Z,5.25
2023-02-13T13:51:35.812Z,5.32
2023-02-13T13:54:35.455Z,5.20
2023-02-13T13:57:25.353Z,6.75
2023-02-13T14:00:13.622Z,5.47
2023-02-13T14:02:59.094Z,4.47
2023-02-13T14:06:00.550Z,5.45
2023-02-13T14:08:45.721Z,5.18
2023-02-13T14:11:33.841Z,4.97
2023-02-13T14:14:28.079Z,5.10
2023-02-13T14:17:16.047Z,4.95
2023-02-13T14:20:01.734Z,4.80
2023-02-13T14:22:47.266Z,4.13
2023-02-13T14:25:32.857Z,4.25
2023-02-13T14:28:25.346Z,2.70
2023-02-13T14:31:22.486Z,3.22
2023-02-13T14:34:18.262Z,3.45
2023-02-13T14:37:20.705Z,3.65
2023-02-13T14:42:59.097Z,2.83
2023-02-13T14:45:58.853Z,2.50
2023-02-13T14:49:11.564Z,3.15
2023-02-13T14:52:04.353Z,2.78
2023-02-13T14:55:10.593Z,2.47
2023-02-13T14:58:28.838Z,2.70
2023-02-13T15:01:37.321Z,2.42
2023-02-13T15:04:43.769Z,2.38
2023-02-13T15:07:33.293Z,3.28
2023-02-13T15:10:40.575Z,2.92
2023-02-13T15:13:40.603Z,2.45
2023-02-13T15:16:26.502Z,2.42
2023-02-13T15:19:17.724Z,3.15
2023-02-13T15:22:05.534Z,3.20
2023-02-13T15:24:51.085Z,4.07
2023-02-13T15:27:42.614Z,3.80
2023-02-13T15:30:30.811Z,4.18
2023-02-13T15:33:20.312Z,3.83
2023-02-13T15:36:06.827Z,4.03
2023-02-13T15:39:09.766Z,4.35
2023-02-13T15:42:01.391Z,4.13
2023-02-13T15:44:49.533Z,4.63
2023-02-13T15:47:36.473Z,5.07
2023-02-13T15:50:35.208Z,4.38
2023-02-13T15:53:21.304Z,3.75
2023-02-13T15:56:06.451Z,3.42
2023-02-13T15:58:53.586Z,5.80
2023-02-13T16:01:43.397Z,5.63
2023-02-13T16:04:30.225Z,7.97
2023-02-13T16:07:15.581Z,6.88
2023-02-13T16:10:26.066Z,6.20
2023-02-13T16:13:17.795Z,6.38
2023-02-13T16:16:10.419Z,5.68
2023-02-13T16:18:55.969Z,5.72
2023-02-13T16:21:41.588Z,6.00
2023-02-13T16:24:27.577Z,4.75
2023-02-13T16:27:16.974Z,5.90
2023-02-13T16:30:07.740Z,7.43
2023-02-13T16:33:14.789Z,6.22
2023-02-13T16:36:16.871Z,6.35
2023-02-13T16:39:17.133Z,5.55
2023-02-13T16:42:02.421Z,4.85
2023-02-13T16:44:47.985Z,5.22
2023-02-13T16:47:33.438Z,4.65
2023-02-13T16:50:19.009Z,5.60
2023-02-13T16:53:04.894Z,5.30
2023-02-13T16:56:01.634Z,6.03
2023-02-13T16:58:46.815Z,5.65
2023-02-13T17:01:32.393Z,6.05
2023-02-13T17:04:27.065Z,5.60
2023-02-13T17:07:14.940Z,5.43
2023-02-13T17:10:21.832Z,5.75
2023-02-13T17:13:12.766Z,6.00
2023-02-13T17:15:59.346Z,6.10
2023-02-13T17:18:44.827Z,5.70
2023-02-13T17:21:30.125Z,5.70
2023-02-13T17:24:18.297Z,6.00
2023-02-13T17:27:03.375Z,5.72
2023-02-13T17:29:48.726Z,6.55
2023-02-13T17:32:34.270Z,6.47
2023-02-13T17:35:19.701Z,6.13
2023-02-13T17:38:06.295Z,6.78
2023-02-13T17:40:51.793Z,6.65
2023-02-13T17:43:37.238Z,7.20
2023-02-13T17:46:22.762Z,6.60
2023-02-13T17:49:08.278Z,6.70
2023-02-13T17:51:54.163Z,6.22
2023-02-13T17:54:39.397Z,6.38
2023-02-13T17:57:24.986Z,5.93
2023-02-13T18:00:10.985Z,6.22
2023-02-13T18:02:56.948Z,6.22
2023-02-13T18:05:42.282Z,5.97
2023-02-13T18:08:27.713Z,6.00
2023-02-13T18:11:13.390Z,5.97
2023-02-13T18:13:58.311Z,7.00
2023-02-13T18:16:45.284Z,5.75
2023-02-13T18:19:30.493Z,6.68
2023-02-13T18:22:16.051Z,6.88
2023-02-13T18:25:01.811Z,6.20
2023-02-13T18:27:48.574Z,7.05
2023-02-13T18:30:33.924Z,7.18
2023-02-13T18:33:19.331Z,7.43
2023-02-13T18:36:04.946Z,8.57
2023-02-13T18:38:52.461Z,7.55
2023-02-13T18:41:37.620Z,7.30
2023-02-13T18:44:28.351Z,7.45
2023-02-13T18:47:14.042Z,6.07
2023-02-13T18:49:59.350Z,6.00
2023-02-13T18:52:44.850Z,5.63
2023-02-13T18:55:29.864Z,6.15
2023-02-13T18:58:15.290Z,6.57
2023-02-13T19:01:11.463Z,6.53
2023-02-13T19:03:56.884Z,6.25
2023-02-13T19:06:43.869Z,6.63
2023-02-13T19:09:29.343Z,6.85
2023-02-13T19:12:14.730Z,6.90
2023-02-13T19:14:59.983Z,6.65
2023-02-13T19:17:45.762Z,7.22
2023-02-13T19:20:31.017Z,6.32
2023-02-13T19:23:16.331Z,10.95
2023-02-13T19:26:10.037Z,10.52
2023-02-13T19:28:57.204Z,11.73
2023-02-13T19:31:42.716Z,11.63
2023-02-13T19:34:28.044Z,13.23
2023-02-13T19:37:13.610Z,13.63
2023-02-13T19:39:59.045Z,12.50
2023-02-13T19:42:44.337Z,12.40
2023-02-13T19:45:29.780Z,12.68
2023-02-13T19:48:15.572Z,11.68
2023-02-13T19:51:09.271Z,10.63
2023-02-13T19:54:06.504Z,9.85
2023-02-13T19:56:51.514Z,9.15
2023-02-13T19:59:36.966Z,7.13
2023-02-13T20:02:22.682Z,7.28
2023-02-13T20:05:08.774Z,7.13
2023-02-13T20:07:53.965Z,8.18
2023-02-13T20:10:45.295Z,7.82
2023-02-13T20:13:31.948Z,9.55
2023-02-13T20:16:18.331Z,7.82
2023-02-13T20:19:07.514Z,7.90
2023-02-13T20:21:52.982Z,8.25
2023-02-13T20:24:38.064Z,11.35
2023-02-13T20:27:23.449Z,10.80
2023-02-13T20:30:10.450Z,9.85
2023-02-13T20:32:56.097Z,9.30
2023-02-13T20:35:41.454Z,9.43
2023-02-13T20:38:26.993Z,8.65
2023-02-13T20:41:24.938Z,8.13
2023-02-13T20:44:12.452Z,7.80
2023-02-13T20:46:59.584Z,7.45
2023-02-13T20:49:45.612Z,7.47
2023-02-13T20:52:30.970Z,7.15
2023-02-13T20:55:16.416Z,7.93
2023-02-13T20:58:01.903Z,7.13
2023-02-13T21:00:47.300Z,7.38
2023-02-13T21:03:32.576Z,9.02
2023-02-13T21:06:17.957Z,8.75
2023-02-13T21:09:06.492Z,7.95
2023-02-13T21:11:52.377Z,6.82
2023-02-13T21:14:39.845Z,8.07
2023-02-13T21:17:25.570Z,8.05
2023-02-13T21:20:11.615Z,9.52
2023-02-13T21:22:59.933Z,8.45
2023-02-13T21:25:45.602Z,9.38
2023-02-13T21:28:32.699Z,9.60
2023-02-13T21:31:26.026Z,7.80
2023-02-13T21:34:13.934Z,8.70
2023-02-13T21:37:00.989Z,8.25
2023-02-13T21:39:48.099Z,7.15
2023-02-13T21:42:33.877Z,7.95
2023-02-13T21:45:19.936Z,8.07
2023-02-13T21:48:05.376Z,7.82
2023-02-13T21:50:50.794Z,8.65
2023-02-13T21:53:36.228Z,7.55
2023-02-13T21:56:24.323Z,7.95
2023-02-13T21:59:14.412Z,8.35
2023-02-13T22:02:00.127Z,7.80
2023-02-13T22:04:45.551Z,8.57
2023-02-13T22:07:30.831Z,7.43
2023-02-13T22:10:16.244Z,7.63
2023-02-13T22:13:01.829Z,7.68
2023-02-13T22:15:47.004Z,8.27
2023-02-13T22:18:34.510Z,8.07
2023-02-13T22:21:22.255Z,7.55
2023-02-13T22:24:07.230Z,7.15
2023-02-13T22:26:52.499Z,7.03
2023-02-13T22:29:40.580Z,7.53
2023-02-13T22:32:26.106Z,7.68
2023-02-13T22:35:11.401Z,8.88
2023-02-13T22:37:57.808Z,8.88
2023-02-13T22:40:43.153Z,7.85
2023-02-13T22:43:28.478Z,7.32
2023-02-13T22:46:14.352Z,7.32
2023-02-13T22:49:00.362Z,7.75
2023-02-13T22:51:45.452Z,6.55
2023-02-13T22:54:30.929Z,8.02
2023-02-13T22:57:16.291Z,7.97
2023-02-13T23:00:01.801Z,6.75
2023-02-13T23:02:47.651Z,6.60
2023-02-13T23:05:32.990Z,7.75
2023-02-13T23:08:18.301Z,6.72
2023-02-13T23:11:30.837Z,7.80
2023-02-13T23:14:16.270Z,7.35
2023-02-13T23:17:20.107Z,6.78
2023-02-13T23:20:06.176Z,7.93
2023-02-13T23:22:52.525Z,7.25
2023-02-13T23:25:38.794Z,6.20
2023-02-13T23:28:23.964Z,7.57
2023-02-13T23:31:09.442Z,7.75
2023-02-13T23:33:54.738Z,7.03
2023-02-13T23:36:40.137Z,7.65
2023-02-13T23:39:25.604Z,7.40
2023-02-13T23:42:10.979Z,7.38
2023-02-13T23:44:56.396Z,7.30
2023-02-13T23:47:42.037Z,7.93
2023-02-13T23:50:27.269Z,6.75
2023-02-13T23:53:12.510Z,6.50
2023-02-13T23:55:57.892Z,6.90
2023-02-13T23:58:43.210Z,5.65
